sensor_id;sensor_type;location;lat;lon;timestamp;P1;durP1;ratioP1;P2;durP2;ratioP2
6953;SDS011;3516;47.980;8.808;2023-07-13T03:59:41;1.00;;;1.00;;
6953;SDS011;3516;47.980;8.808;2023-07-13T04:02:08;1.00;;;1.00;;
6953;SDS011;3516;47.980;8.808;2023-07-13T04:04:35;0.73;;;0.73;;
6953;SDS011;3516;47.980;8.808;2023-07-13T04:07:05;0.80;;;0.80;;
6953;SDS011;3516;47.980;8.808;2023-07-13T04:09:33;0.80;;;0.80;;
6953;SDS011;3516;47.980;8.808;2023-07-13T04:12:00;0.70;;;0.70;;
6953;SDS011;3516;47.980;8.808;2023-07-13T04:14:27;1.85;;;0.80;;
6953;SDS011;3516;47.980;8.808;2023-07-13T04:16:55;0.90;;;0.90;;
6953;SDS011;3516;47.980;8.808;2023-07-13T04:19:23;1.15;;;1.15;;
6953;SDS011;3516;47.980;8.808;2023-07-13T04:21:50;0.75;;;0.75;;
6953;SDS011;3516;47.980;8.808;2023-07-13T04:24:17;0.88;;;0.88;;
6953;SDS011;3516;47.980;8.808;2023-07-13T04:26:44;0.80;;;0.80;;
6953;SDS011;3516;47.980;8.808;2023-07-13T04:29:11;0.80;;;0.80;;
6953;SDS011;3516;47.980;8.808;2023-07-13T04:31:38;0.70;;;0.70;;
6953;SDS011;3516;47.980;8.808;2023-07-13T04:34:06;0.80;;;0.80;;
6953;SDS011;3516;47.980;8.808;2023-07-13T04:36:33;1.08;;;1.08;;
6953;SDS011;3516;47.980;8.808;2023-07-13T04:39:02;0.80;;;0.80;;
6953;SDS011;3516;47.980;8.808;2023-07-13T04:41:29;0.80;;;0.80;;
6953;SDS011;3516;47.980;8.808;2023-07-13T04:43:56;1.00;;;1.00;;
6953;SDS011;3516;47.980;8.808;2023-07-13T04:46:23;0.88;;;0.88;;
6953;SDS011;3516;47.980;8.808;2023-07-13T04:48:50;0.80;;;0.80;;
6953;SDS011;3516;47.980;8.808;2023-07-13T04:51:19;0.80;;;0.80;;
6953;SDS011;3516;47.980;8.808;2023-07-13T04:53:46;0.93;;;0.93;;
6953;SDS011;3516;47.980;8.808;2023-07-13T04:56:13;1.10;;;1.10;;
6953;SDS011;3516;47.980;8.808;2023-07-13T04:58:40;1.00;;;1.00;;
6953;SDS011;3516;47.980;8.808;2023-07-13T05:01:08;1.00;;;1.00;;
6953;SDS011;3516;47.980;8.808;2023-07-13T05:03:36;0.75;;;0.75;;
6953;SDS011;3516;47.980;8.808;2023-07-13T05:06:03;0.90;;;0.90;;
6953;SDS011;3516;47.980;8.808;2023-07-13T05:08:32;0.77;;;0.75;;
6953;SDS011;3516;47.980;8.808;2023-07-13T05:10:59;0.77;;;0.77;;
6953;SDS011;3516;47.980;8.808;2023-07-13T05:13:26;0.65;;;0.65;;
6953;SDS011;3516;47.980;8.808;2023-07-13T05:15:57;0.80;;;0.80;;
6953;SDS011;3516;47.980;8.808;2023-07-13T05:18:24;0.77;;;0.77;;
6953;SDS011;3516;47.980;8.808;2023-07-13T05:20:56;0.73;;;0.73;;
6953;SDS011;3516;47.980;8.808;2023-07-13T05:23:23;0.90;;;0.90;;
6953;SDS011;3516;47.980;8.808;2023-07-13T05:25:52;0.82;;;0.82;;
6953;SDS011;3516;47.980;8.808;2023-07-13T05:28:19;0.80;;;0.80;;
6953;SDS011;3516;47.980;8.808;2023-07-13T05:30:46;0.80;;;0.80;;
6953;SDS011;3516;47.980;8.808;2023-07-13T05:33:13;0.90;;;0.90;;
6953;SDS011;3516;47.980;8.808;2023-07-13T05:35:40;0.95;;;0.95;;
6953;SDS011;3516;47.980;8.808;2023-07-13T05:38:07;0.50;;;0.50;;
6953;SDS011;3516;47.980;8.808;2023-07-13T05:40:34;0.88;;;0.88;;
6953;SDS011;3516;47.980;8.808;2023-07-13T05:43:03;0.90;;;0.90;;
6953;SDS011;3516;47.980;8.808;2023-07-13T05:45:30;0.90;;;0.90;;
6953;SDS011;3516;47.980;8.808;2023-07-13T05:47:57;0.70;;;0.70;;
6953;SDS011;3516;47.980;8.808;2023-07-13T05:50:25;0.70;;;0.70;;
6953;SDS011;3516;47.980;8.808;2023-07-13T05:52:52;1.17;;;1.17;;
6953;SDS011;3516;47.980;8.808;2023-07-13T05:55:20;0.70;;;0.70;;
6953;SDS011;3516;47.980;8.808;2023-07-13T05:57:47;0.90;;;0.90;;
6953;SDS011;3516;47.980;8.808;2023-07-13T06:00:16;0.90;;;0.90;;
6953;SDS011;3516;47.980;8.808;2023-07-13T06:02:43;0.88;;;0.85;;
6953;SDS011;3516;47.980;8.808;2023-07-13T06:05:10;0.80;;;0.80;;
6953;SDS011;3516;47.980;8.808;2023-07-13T06:07:37;1.13;;;1.00;;
6953;SDS011;3516;47.980;8.808;2023-07-13T06:10:05;0.85;;;0.82;;
6953;SDS011;3516;47.980;8.808;2023-07-13T06:12:32;0.70;;;0.70;;
6953;SDS011;3516;47.980;8.808;2023-07-13T06:14:59;0.82;;;0.82;;
6953;SDS011;3516;47.980;8.808;2023-07-13T06:17:27;0.80;;;0.80;;
6953;SDS011;3516;47.980;8.808;2023-07-13T06:19:54;0.77;;;0.75;;
6953;SDS011;3516;47.980;8.808;2023-07-13T06:22:21;0.70;;;0.70;;
6953;SDS011;3516;47.980;8.808;2023-07-13T06:24:48;2.10;;;0.85;;
6953;SDS011;3516;47.980;8.808;2023-07-13T06:27:15;1.25;;;0.80;;
6953;SDS011;3516;47.980;8.808;2023-07-13T06:29:42;0.70;;;0.70;;
6953;SDS011;3516;47.980;8.808;2023-07-13T06:32:10;0.80;;;0.80;;
6953;SDS011;3516;47.980;8.808;2023-07-13T06:34:38;1.00;;;0.77;;
6953;SDS011;3516;47.980;8.808;2023-07-13T06:37:05;0.63;;;0.63;;
6953;SDS011;3516;47.980;8.808;2023-07-13T06:39:33;1.17;;;1.00;;
6953;SDS011;3516;47.980;8.808;2023-07-13T06:42:00;0.80;;;0.80;;
6953;SDS011;3516;47.980;8.808;2023-07-13T06:44:27;0.77;;;0.77;;
6953;SDS011;3516;47.980;8.808;2023-07-13T06:46:54;0.70;;;0.70;;
6953;SDS011;3516;47.980;8.808;2023-07-13T06:49:21;0.85;;;0.85;;
6953;SDS011;3516;47.980;8.808;2023-07-13T06:51:49;0.70;;;0.70;;
6953;SDS011;3516;47.980;8.808;2023-07-13T06:54:16;1.45;;;0.75;;
6953;SDS011;3516;47.980;8.808;2023-07-13T06:56:43;2.30;;;0.60;;
6953;SDS011;3516;47.980;8.808;2023-07-13T06:59:10;0.80;;;0.80;;
6953;SDS011;3516;47.980;8.808;2023-07-13T07:01:37;0.80;;;0.68;;
6953;SDS011;3516;47.980;8.808;2023-07-13T07:04:04;1.00;;;0.90;;
6953;SDS011;3516;47.980;8.808;2023-07-13T07:06:32;0.65;;;0.65;;
6953;SDS011;3516;47.980;8.808;2023-07-13T07:09:00;0.95;;;0.77;;
6953;SDS011;3516;47.980;8.808;2023-07-13T07:11:27;2.70;;;1.00;;
6953;SDS011;3516;47.980;8.808;2023-07-13T07:13:54;0.70;;;0.70;;
6953;SDS011;3516;47.980;8.808;2023-07-13T07:16:21;0.68;;;0.68;;
6953;SDS011;3516;47.980;8.808;2023-07-13T07:18:48;0.75;;;0.75;;
6953;SDS011;3516;47.980;8.808;2023-07-13T07:21:15;1.70;;;0.70;;
6953;SDS011;3516;47.980;8.808;2023-07-13T07:23:42;1.08;;;0.50;;
6953;SDS011;3516;47.980;8.808;2023-07-13T07:26:11;0.70;;;0.70;;
6953;SDS011;3516;47.980;8.808;2023-07-13T07:28:38;0.80;;;0.80;;
6953;SDS011;3516;47.980;8.808;2023-07-13T07:31:05;1.17;;;0.68;;
6953;SDS011;3516;47.980;8.808;2023-07-13T07:33:32;1.63;;;0.70;;
6953;SDS011;3516;47.980;8.808;2023-07-13T07:35:59;0.60;;;0.60;;
6953;SDS011;3516;47.980;8.808;2023-07-13T07:38:26;0.70;;;0.50;;
6953;SDS011;3516;47.980;8.808;2023-07-13T07:40:53;0.50;;;0.50;;
6953;SDS011;3516;47.980;8.808;2023-07-13T07:43:22;2.28;;;0.60;;
6953;SDS011;3516;47.980;8.808;2023-07-13T07:45:49;0.68;;;0.65;;
6953;SDS011;3516;47.980;8.808;2023-07-13T07:48:16;0.75;;;0.70;;
6953;SDS011;3516;47.980;8.808;2023-07-13T07:50:43;0.85;;;0.70;;
6953;SDS011;3516;47.980;8.808;2023-07-13T07:53:10;0.68;;;0.60;;
6953;SDS011;3516;47.980;8.808;2023-07-13T07:55:37;1.17;;;0.60;;
6953;SDS011;3516;47.980;8.808;2023-07-13T07:58:05;0.40;;;0.40;;
6953;SDS011;3516;47.980;8.808;2023-07-13T08:00:33;0.52;;;0.52;;
6953;SDS011;3516;47.980;8.808;2023-07-13T08:03:00;0.60;;;0.60;;
6953;SDS011;3516;47.980;8.808;2023-07-13T08:05:28;0.57;;;0.45;;
6953;SDS011;3516;47.980;8.808;2023-07-13T08:07:55;0.82;;;0.60;;
6953;SDS011;3516;47.980;8.808;2023-07-13T08:10:22;0.60;;;0.60;;
6953;SDS011;3516;47.980;8.808;2023-07-13T08:12:49;0.60;;;0.60;;
6953;SDS011;3516;47.980;8.808;2023-07-13T08:15:16;0.50;;;0.50;;
6953;SDS011;3516;47.980;8.808;2023-07-13T08:17:46;0.50;;;0.50;;
6953;SDS011;3516;47.980;8.808;2023-07-13T08:20:14;0.60;;;0.60;;
6953;SDS011;3516;47.980;8.808;2023-07-13T08:22:41;0.70;;;0.65;;
6953;SDS011;3516;47.980;8.808;2023-07-13T08:25:08;0.60;;;0.60;;
6953;SDS011;3516;47.980;8.808;2023-07-13T08:27:35;0.65;;;0.40;;
6953;SDS011;3516;47.980;8.808;2023-07-13T08:30:02;1.08;;;0.70;;
6953;SDS011;3516;47.980;8.808;2023-07-13T08:32:30;1.08;;;0.73;;
6953;SDS011;3516;47.980;8.808;2023-07-13T08:34:59;0.40;;;0.40;;
6953;SDS011;3516;47.980;8.808;2023-07-13T08:37:26;0.50;;;0.50;;
6953;SDS011;3516;47.980;8.808;2023-07-13T08:39:53;1.17;;;0.70;;
6953;SDS011;3516;47.980;8.808;2023-07-13T08:42:23;2.05;;;0.80;;
6953;SDS011;3516;47.980;8.808;2023-07-13T08:44:54;0.60;;;0.60;;
6953;SDS011;3516;47.980;8.808;2023-07-13T08:47:23;0.50;;;0.50;;
6953;SDS011;3516;47.980;8.808;2023-07-13T08:49:51;1.23;;;0.65;;
6953;SDS011;3516;47.980;8.808;2023-07-13T08:52:31;0.63;;;0.50;;
6953;SDS011;3516;47.980;8.808;2023-07-13T08:55:02;1.73;;;0.52;;
6953;SDS011;3516;47.980;8.808;2023-07-13T08:57:31;0.50;;;0.50;;
6953;SDS011;3516;47.980;8.808;2023-07-13T08:59:59;0.82;;;0.60;;
6953;SDS011;3516;47.980;8.808;2023-07-13T09:02:27;0.50;;;0.50;;
6953;SDS011;3516;47.980;8.808;2023-07-13T09:04:58;0.80;;;0.80;;
6953;SDS011;3516;47.980;8.808;2023-07-13T09:07:29;1.00;;;0.90;;
6953;SDS011;3516;47.980;8.808;2023-07-13T09:10:01;0.70;;;0.70;;
6953;SDS011;3516;47.980;8.808;2023-07-13T09:12:31;1.63;;;0.85;;
6953;SDS011;3516;47.980;8.808;2023-07-13T09:15:00;0.77;;;0.77;;
6953;SDS011;3516;47.980;8.808;2023-07-13T09:17:31;3.67;;;0.70;;
6953;SDS011;3516;47.980;8.808;2023-07-13T09:20:00;0.60;;;0.60;;
6953;SDS011;3516;47.980;8.808;2023-07-13T09:22:31;0.45;;;0.45;;
6953;SDS011;3516;47.980;8.808;2023-07-13T09:25:02;0.73;;;0.73;;
6953;SDS011;3516;47.980;8.808;2023-07-13T09:27:33;0.88;;;0.75;;
6953;SDS011;3516;47.980;8.808;2023-07-13T09:30:04;0.77;;;0.73;;
6953;SDS011;3516;47.980;8.808;2023-07-13T09:32:38;0.70;;;0.70;;
6953;SDS011;3516;47.980;8.808;2023-07-13T09:35:09;1.42;;;0.80;;
6953;SDS011;3516;47.980;8.808;2023-07-13T09:37:38;0.98;;;0.90;;
6953;SDS011;3516;47.980;8.808;2023-07-13T09:40:08;0.80;;;0.80;;
6953;SDS011;3516;47.980;8.808;2023-07-13T09:42:38;2.53;;;1.02;;
6953;SDS011;3516;47.980;8.808;2023-07-13T09:45:05;0.77;;;0.70;;
6953;SDS011;3516;47.980;8.808;2023-07-13T09:47:38;2.50;;;0.90;;
6953;SDS011;3516;47.980;8.808;2023-07-13T09:50:06;1.55;;;1.00;;
6953;SDS011;3516;47.980;8.808;2023-07-13T09:52:40;2.08;;;1.20;;
6953;SDS011;3516;47.980;8.808;2023-07-13T09:55:22;1.35;;;1.20;;
6953;SDS011;3516;47.980;8.808;2023-07-13T09:57:50;1.65;;;1.15;;
6953;SDS011;3516;47.980;8.808;2023-07-13T10:00:20;1.10;;;1.10;;
6953;SDS011;3516;47.980;8.808;2023-07-13T10:02:49;0.90;;;0.90;;
6953;SDS011;3516;47.980;8.808;2023-07-13T10:05:24;1.40;;;1.00;;
6953;SDS011;3516;47.980;8.808;2023-07-13T10:07:53;1.17;;;0.90;;
6953;SDS011;3516;47.980;8.808;2023-07-13T10:10:23;3.38;;;1.15;;
6953;SDS011;3516;47.980;8.808;2023-07-13T10:12:50;0.88;;;0.88;;
6953;SDS011;3516;47.980;8.808;2023-07-13T10:15:18;0.75;;;0.75;;
6953;SDS011;3516;47.980;8.808;2023-07-13T10:17:46;0.85;;;0.85;;
6953;SDS011;3516;47.980;8.808;2023-07-13T10:20:13;1.95;;;1.00;;
6953;SDS011;3516;47.980;8.808;2023-07-13T10:22:42;0.88;;;0.88;;
6953;SDS011;3516;47.980;8.808;2023-07-13T10:25:17;0.95;;;0.95;;
6953;SDS011;3516;47.980;8.808;2023-07-13T10:27:44;0.93;;;0.93;;
6953;SDS011;3516;47.980;8.808;2023-07-13T10:30:13;1.20;;;1.10;;
6953;SDS011;3516;47.980;8.808;2023-07-13T10:32:42;1.00;;;1.00;;
6953;SDS011;3516;47.980;8.808;2023-07-13T10:35:09;0.80;;;0.80;;
6953;SDS011;3516;47.980;8.808;2023-07-13T10:37:39;1.65;;;0.90;;
6953;SDS011;3516;47.980;8.808;2023-07-13T10:40:11;0.90;;;0.90;;
6953;SDS011;3516;47.980;8.808;2023-07-13T10:42:43;1.15;;;0.90;;
6953;SDS011;3516;47.980;8.808;2023-07-13T10:45:13;1.65;;;1.23;;
6953;SDS011;3516;47.980;8.808;2023-07-13T10:47:41;1.58;;;1.48;;
6953;SDS011;3516;47.980;8.808;2023-07-13T10:50:09;1.23;;;1.23;;
6953;SDS011;3516;47.980;8.808;2023-07-13T10:52:44;1.10;;;1.10;;
6953;SDS011;3516;47.980;8.808;2023-07-13T10:55:31;1.25;;;1.08;;
6953;SDS011;3516;47.980;8.808;2023-07-13T10:58:02;1.10;;;1.10;;
6953;SDS011;3516;47.980;8.808;2023-07-13T11:00:31;1.08;;;1.08;;
6953;SDS011;3516;47.980;8.808;2023-07-13T11:02:59;1.30;;;1.20;;
6953;SDS011;3516;47.980;8.808;2023-07-13T11:05:28;1.63;;;1.50;;
6953;SDS011;3516;47.980;8.808;2023-07-13T11:08:02;2.47;;;1.80;;
6953;SDS011;3516;47.980;8.808;2023-07-13T11:13:36;2.45;;;1.85;;
6953;SDS011;3516;47.980;8.808;2023-07-13T11:16:11;3.42;;;1.83;;
6953;SDS011;3516;47.980;8.808;2023-07-13T11:18:39;3.20;;;1.52;;
6953;SDS011;3516;47.980;8.808;2023-07-13T11:21:13;2.15;;;1.30;;
6953;SDS011;3516;47.980;8.808;2023-07-13T11:23:41;2.25;;;1.13;;
6953;SDS011;3516;47.980;8.808;2023-07-13T11:28:53;1.55;;;1.45;;
6953;SDS011;3516;47.980;8.808;2023-07-13T11:31:20;2.50;;;2.10;;
6953;SDS011;3516;47.980;8.808;2023-07-13T11:33:52;3.38;;;1.63;;
6953;SDS011;3516;47.980;8.808;2023-07-13T11:36:20;1.65;;;1.55;;
6953;SDS011;3516;47.980;8.808;2023-07-13T11:38:51;1.67;;;1.60;;
6953;SDS011;3516;47.980;8.808;2023-07-13T11:41:22;4.88;;;2.28;;
6953;SDS011;3516;47.980;8.808;2023-07-13T11:43:54;2.55;;;2.05;;
6953;SDS011;3516;47.980;8.808;2023-07-13T11:46:23;2.35;;;2.15;;
6953;SDS011;3516;47.980;8.808;2023-07-13T11:48:50;2.00;;;1.80;;
6953;SDS011;3516;47.980;8.808;2023-07-13T11:51:19;2.17;;;1.98;;
6953;SDS011;3516;47.980;8.808;2023-07-13T11:53:47;2.75;;;1.88;;
6953;SDS011;3516;47.980;8.808;2023-07-13T11:56:15;1.85;;;1.55;;
6953;SDS011;3516;47.980;8.808;2023-07-13T11:58:42;1.30;;;1.30;;
6953;SDS011;3516;47.980;8.808;2023-07-13T12:01:15;1.02;;;1.02;;
6953;SDS011;3516;47.980;8.808;2023-07-13T12:03:44;0.93;;;0.93;;
6953;SDS011;3516;47.980;8.808;2023-07-13T12:06:20;0.93;;;0.77;;
6953;SDS011;3516;47.980;8.808;2023-07-13T12:08:48;1.48;;;1.02;;
6953;SDS011;3516;47.980;8.808;2023-07-13T12:11:16;1.00;;;1.00;;
6953;SDS011;3516;47.980;8.808;2023-07-13T12:13:44;1.40;;;1.30;;
6953;SDS011;3516;47.980;8.808;2023-07-13T12:16:15;1.60;;;1.50;;
6953;SDS011;3516;47.980;8.808;2023-07-13T12:18:43;1.15;;;1.13;;
6953;SDS011;3516;47.980;8.808;2023-07-13T12:21:13;1.30;;;1.20;;
6953;SDS011;3516;47.980;8.808;2023-07-13T12:23:43;1.27;;;1.10;;
6953;SDS011;3516;47.980;8.808;2023-07-13T12:26:10;2.05;;;1.10;;
6953;SDS011;3516;47.980;8.808;2023-07-13T12:28:43;0.85;;;0.85;;
6953;SDS011;3516;47.980;8.808;2023-07-13T12:31:22;0.82;;;0.82;;
6953;SDS011;3516;47.980;8.808;2023-07-13T12:33:55;1.05;;;0.98;;
6953;SDS011;3516;47.980;8.808;2023-07-13T12:36:23;2.20;;;1.20;;
6953;SDS011;3516;47.980;8.808;2023-07-13T12:38:50;0.88;;;0.88;;
6953;SDS011;3516;47.980;8.808;2023-07-13T12:41:17;0.80;;;0.80;;
6953;SDS011;3516;47.980;8.808;2023-07-13T12:43:45;0.93;;;0.90;;
6953;SDS011;3516;47.980;8.808;2023-07-13T12:46:17;0.80;;;0.80;;
6953;SDS011;3516;47.980;8.808;2023-07-13T12:48:49;0.85;;;0.85;;
6953;SDS011;3516;47.980;8.808;2023-07-13T12:51:17;1.15;;;1.00;;
6953;SDS011;3516;47.980;8.808;2023-07-13T12:53:47;0.90;;;0.90;;
6953;SDS011;3516;47.980;8.808;2023-07-13T12:56:16;0.75;;;0.75;;
6953;SDS011;3516;47.980;8.808;2023-07-13T12:58:45;0.82;;;0.82;;
6953;SDS011;3516;47.980;8.808;2023-07-13T13:01:15;0.88;;;0.88;;
6953;SDS011;3516;47.980;8.808;2023-07-13T13:03:45;0.93;;;0.93;;
6953;SDS011;3516;47.980;8.808;2023-07-13T13:06:21;0.82;;;0.82;;
6953;SDS011;3516;47.980;8.808;2023-07-13T13:08:50;0.70;;;0.70;;
6953;SDS011;3516;47.980;8.808;2023-07-13T13:11:17;0.85;;;0.85;;
6953;SDS011;3516;47.980;8.808;2023-07-13T13:13:45;0.70;;;0.70;;
6953;SDS011;3516;47.980;8.808;2023-07-13T13:16:14;0.73;;;0.73;;
6953;SDS011;3516;47.980;8.808;2023-07-13T13:18:43;0.70;;;0.70;;
6953;SDS011;3516;47.980;8.808;2023-07-13T13:21:10;1.10;;;1.00;;
6953;SDS011;3516;47.980;8.808;2023-07-13T13:23:39;1.05;;;0.60;;
6953;SDS011;3516;47.980;8.808;2023-07-13T13:26:08;1.45;;;1.02;;
6953;SDS011;3516;47.980;8.808;2023-07-13T13:28:36;0.65;;;0.65;;
6953;SDS011;3516;47.980;8.808;2023-07-13T13:31:03;0.93;;;0.93;;
6953;SDS011;3516;47.980;8.808;2023-07-13T13:33:30;0.93;;;0.93;;
6953;SDS011;3516;47.980;8.808;2023-07-13T13:35:57;1.05;;;1.05;;
6953;SDS011;3516;47.980;8.808;2023-07-13T13:38:25;1.05;;;1.05;;
6953;SDS011;3516;47.980;8.808;2023-07-13T13:40:54;1.38;;;1.27;;
6953;SDS011;3516;47.980;8.808;2023-07-13T13:43:21;1.08;;;0.90;;
6953;SDS011;3516;47.980;8.808;2023-07-13T13:45:51;1.60;;;1.42;;
6953;SDS011;3516;47.980;8.808;2023-07-13T13:48:18;1.00;;;1.00;;
6953;SDS011;3516;47.980;8.808;2023-07-13T13:50:47;1.23;;;1.17;;
6953;SDS011;3516;47.980;8.808;2023-07-13T13:53:14;1.52;;;0.80;;
6953;SDS011;3516;47.980;8.808;2023-07-13T13:55:41;0.90;;;0.90;;
6953;SDS011;3516;47.980;8.808;2023-07-13T13:58:10;1.00;;;1.00;;
6953;SDS011;3516;47.980;8.808;2023-07-13T14:00:37;0.90;;;0.90;;
6953;SDS011;3516;47.980;8.808;2023-07-13T14:03:05;0.88;;;0.88;;
6953;SDS011;3516;47.980;8.808;2023-07-13T14:05:32;0.80;;;0.80;;
6953;SDS011;3516;47.980;8.808;2023-07-13T14:07:59;0.80;;;0.80;;
6953;SDS011;3516;47.980;8.808;2023-07-13T14:10:26;1.05;;;1.05;;
6953;SDS011;3516;47.980;8.808;2023-07-13T14:12:54;1.08;;;1.00;;
6953;SDS011;3516;47.980;8.808;2023-07-13T14:15:24;1.50;;;1.40;;
6953;SDS011;3516;47.980;8.808;2023-07-13T14:17:52;1.40;;;1.30;;
6953;SDS011;3516;47.980;8.808;2023-07-13T14:20:20;1.08;;;1.08;;
6953;SDS011;3516;47.980;8.808;2023-07-13T14:22:49;1.10;;;1.02;;
6953;SDS011;3516;47.980;8.808;2023-07-13T14:25:16;1.13;;;1.13;;
6953;SDS011;3516;47.980;8.808;2023-07-13T14:27:44;1.00;;;1.00;;
6953;SDS011;3516;47.980;8.808;2023-07-13T14:30:14;0.80;;;0.80;;
6953;SDS011;3516;47.980;8.808;2023-07-13T14:32:43;1.13;;;1.13;;
6953;SDS011;3516;47.980;8.808;2023-07-13T14:35:11;0.90;;;0.90;;
6953;SDS011;3516;47.980;8.808;2023-07-13T14:37:38;0.80;;;0.80;;
6953;SDS011;3516;47.980;8.808;2023-07-13T14:40:11;0.90;;;0.90;;
6953;SDS011;3516;47.980;8.808;2023-07-13T14:42:39;0.90;;;0.90;;
6953;SDS011;3516;47.980;8.808;2023-07-13T14:45:11;0.80;;;0.80;;
6953;SDS011;3516;47.980;8.808;2023-07-13T14:47:38;1.10;;;1.00;;
6953;SDS011;3516;47.980;8.808;2023-07-13T14:50:08;0.98;;;0.98;;
6953;SDS011;3516;47.980;8.808;2023-07-13T14:52:38;0.90;;;0.90;;
6953;SDS011;3516;47.980;8.808;2023-07-13T14:55:08;1.00;;;1.00;;
6953;SDS011;3516;47.980;8.808;2023-07-13T14:57:35;0.77;;;0.77;;
6953;SDS011;3516;47.980;8.808;2023-07-13T15:00:03;1.08;;;0.95;;
6953;SDS011;3516;47.980;8.808;2023-07-13T15:02:31;0.80;;;0.80;;
6953;SDS011;3516;47.980;8.808;2023-07-13T15:04:59;0.98;;;0.98;;
6953;SDS011;3516;47.980;8.808;2023-07-13T15:07:28;1.05;;;1.05;;
6953;SDS011;3516;47.980;8.808;2023-07-13T15:09:55;2.15;;;1.10;;
6953;SDS011;3516;47.980;8.808;2023-07-13T15:12:22;1.38;;;1.10;;
6953;SDS011;3516;47.980;8.808;2023-07-13T15:14:49;1.27;;;1.10;;
6953;SDS011;3516;47.980;8.808;2023-07-13T15:17:19;0.90;;;0.90;;
6953;SDS011;3516;47.980;8.808;2023-07-13T15:22:15;1.20;;;1.20;;
6953;SDS011;3516;47.980;8.808;2023-07-13T15:24:44;0.85;;;0.85;;
6953;SDS011;3516;47.980;8.808;2023-07-13T15:27:12;0.73;;;0.73;;
6953;SDS011;3516;47.980;8.808;2023-07-13T15:29:39;0.70;;;0.70;;
6953;SDS011;3516;47.980;8.808;2023-07-13T15:32:09;0.80;;;0.80;;
6953;SDS011;3516;47.980;8.808;2023-07-13T15:34:38;2.35;;;0.80;;
6953;SDS011;3516;47.980;8.808;2023-07-13T15:37:08;1.13;;;1.02;;
6953;SDS011;3516;47.980;8.808;2023-07-13T15:39:37;2.30;;;1.05;;
6953;SDS011;3516;47.980;8.808;2023-07-13T15:42:07;1.15;;;1.15;;
6953;SDS011;3516;47.980;8.808;2023-07-13T15:44:34;1.00;;;1.00;;
6953;SDS011;3516;47.980;8.808;2023-07-13T16:21:26;1.40;;;1.00;;
6953;SDS011;3516;47.980;8.808;2023-07-13T16:23:54;0.85;;;0.68;;
6953;SDS011;3516;47.980;8.808;2023-07-13T16:26:24;0.93;;;0.90;;
6953;SDS011;3516;47.980;8.808;2023-07-13T16:28:52;1.00;;;0.73;;
6953;SDS011;3516;47.980;8.808;2023-07-13T16:31:25;0.60;;;0.60;;
6953;SDS011;3516;47.980;8.808;2023-07-13T16:33:52;0.85;;;0.85;;
6953;SDS011;3516;47.980;8.808;2023-07-13T16:36:19;1.17;;;0.93;;
6953;SDS011;3516;47.980;8.808;2023-07-13T16:38:48;0.63;;;0.60;;
6953;SDS011;3516;47.980;8.808;2023-07-13T16:41:15;0.75;;;0.75;;
6953;SDS011;3516;47.980;8.808;2023-07-13T16:43:42;0.70;;;0.70;;
6953;SDS011;3516;47.980;8.808;2023-07-13T16:46:10;0.50;;;0.50;;
6953;SDS011;3516;47.980;8.808;2023-07-13T16:48:39;0.70;;;0.70;;
6953;SDS011;3516;47.980;8.808;2023-07-13T16:51:06;0.70;;;0.70;;
6953;SDS011;3516;47.980;8.808;2023-07-13T16:53:34;0.90;;;0.60;;
6953;SDS011;3516;47.980;8.808;2023-07-13T16:56:02;1.05;;;0.95;;
6953;SDS011;3516;47.980;8.808;2023-07-13T16:58:30;0.60;;;0.60;;
6953;SDS011;3516;47.980;8.808;2023-07-13T17:01:00;1.15;;;0.90;;
6953;SDS011;3516;47.980;8.808;2023-07-13T17:03:28;0.65;;;0.65;;
6953;SDS011;3516;47.980;8.808;2023-07-13T17:05:56;0.88;;;0.88;;
6953;SDS011;3516;47.980;8.808;2023-07-13T17:08:24;0.75;;;0.70;;
6953;SDS011;3516;47.980;8.808;2023-07-13T17:10:54;1.10;;;1.00;;
6953;SDS011;3516;47.980;8.808;2023-07-13T17:13:23;0.80;;;0.80;;
6953;SDS011;3516;47.980;8.808;2023-07-13T17:15:51;2.40;;;1.13;;
6953;SDS011;3516;47.980;8.808;2023-07-13T17:18:21;0.80;;;0.80;;
6953;SDS011;3516;47.980;8.808;2023-07-13T17:20:49;0.85;;;0.85;;
6953;SDS011;3516;47.980;8.808;2023-07-13T17:23:18;0.82;;;0.82;;
6953;SDS011;3516;47.980;8.808;2023-07-13T17:25:45;1.92;;;1.10;;
6953;SDS011;3516;47.980;8.808;2023-07-13T17:28:14;0.90;;;0.90;;
6953;SDS011;3516;47.980;8.808;2023-07-13T17:30:43;0.85;;;0.80;;
6953;SDS011;3516;47.980;8.808;2023-07-13T17:33:15;0.75;;;0.75;;
6953;SDS011;3516;47.980;8.808;2023-07-13T17:35:46;0.82;;;0.82;;
6953;SDS011;3516;47.980;8.808;2023-07-13T17:38:14;0.98;;;0.80;;
6953;SDS011;3516;47.980;8.808;2023-07-13T17:40:41;4.85;;;0.70;;
6953;SDS011;3516;47.980;8.808;2023-07-13T17:43:08;0.65;;;0.65;;
6953;SDS011;3516;47.980;8.808;2023-07-13T17:45:35;0.60;;;0.60;;
6953;SDS011;3516;47.980;8.808;2023-07-13T17:48:04;0.80;;;0.80;;
6953;SDS011;3516;47.980;8.808;2023-07-13T17:50:32;0.80;;;0.80;;
6953;SDS011;3516;47.980;8.808;2023-07-13T17:53:02;0.60;;;0.60;;
6953;SDS011;3516;47.980;8.808;2023-07-13T17:55:31;0.50;;;0.50;;
6953;SDS011;3516;47.980;8.808;2023-07-13T17:57:59;0.80;;;0.70;;
6953;SDS011;3516;47.980;8.808;2023-07-13T18:00:29;0.52;;;0.52;;
6953;SDS011;3516;47.980;8.808;2023-07-13T18:03:01;0.70;;;0.70;;
6953;SDS011;3516;47.980;8.808;2023-07-13T18:05:31;0.60;;;0.60;;
6953;SDS011;3516;47.980;8.808;2023-07-13T18:08:00;0.60;;;0.60;;
6953;SDS011;3516;47.980;8.808;2023-07-13T18:10:30;0.70;;;0.70;;
6953;SDS011;3516;47.980;8.808;2023-07-13T18:12:57;0.65;;;0.65;;
6953;SDS011;3516;47.980;8.808;2023-07-13T18:15:26;0.60;;;0.60;;
6953;SDS011;3516;47.980;8.808;2023-07-13T18:17:54;0.70;;;0.70;;
6953;SDS011;3516;47.980;8.808;2023-07-13T18:20:21;0.68;;;0.68;;
6953;SDS011;3516;47.980;8.808;2023-07-13T18:22:50;0.60;;;0.60;;
6953;SDS011;3516;47.980;8.808;2023-07-13T18:25:19;0.75;;;0.75;;
6953;SDS011;3516;47.980;8.808;2023-07-13T18:27:47;0.68;;;0.68;;
6953;SDS011;3516;47.980;8.808;2023-07-13T18:30:14;0.70;;;0.70;;
6953;SDS011;3516;47.980;8.808;2023-07-13T18:32:42;0.60;;;0.60;;
6953;SDS011;3516;47.980;8.808;2023-07-13T18:35:14;0.70;;;0.70;;
6953;SDS011;3516;47.980;8.808;2023-07-13T18:37:42;0.57;;;0.57;;
6953;SDS011;3516;47.980;8.808;2023-07-13T18:40:14;0.60;;;0.60;;
6953;SDS011;3516;47.980;8.808;2023-07-13T18:42:42;0.70;;;0.70;;
6953;SDS011;3516;47.980;8.808;2023-07-13T18:45:10;0.70;;;0.70;;
6953;SDS011;3516;47.980;8.808;2023-07-13T18:47:39;0.55;;;0.55;;
6953;SDS011;3516;47.980;8.808;2023-07-13T18:50:16;0.60;;;0.60;;
6953;SDS011;3516;47.980;8.808;2023-07-13T18:52:44;0.50;;;0.50;;
6953;SDS011;3516;47.980;8.808;2023-07-13T18:55:17;0.60;;;0.60;;
6953;SDS011;3516;47.980;8.808;2023-07-13T18:57:45;0.90;;;0.85;;
6953;SDS011;3516;47.980;8.808;2023-07-13T19:00:12;0.80;;;0.80;;
6953;SDS011;3516;47.980;8.808;2023-07-13T19:02:40;0.88;;;0.88;;
6953;SDS011;3516;47.980;8.808;2023-07-13T19:05:17;0.70;;;0.70;;
6953;SDS011;3516;47.980;8.808;2023-07-13T19:07:46;0.85;;;0.85;;
6953;SDS011;3516;47.980;8.808;2023-07-13T19:10:14;0.70;;;0.70;;
6953;SDS011;3516;47.980;8.808;2023-07-13T19:12:44;0.60;;;0.60;;
6953;SDS011;3516;47.980;8.808;2023-07-13T19:15:16;0.52;;;0.52;;
6953;SDS011;3516;47.980;8.808;2023-07-13T19:17:44;0.60;;;0.60;;
6953;SDS011;3516;47.980;8.808;2023-07-13T19:20:12;1.02;;;0.70;;
6953;SDS011;3516;47.980;8.808;2023-07-13T19:22:41;0.60;;;0.60;;
6953;SDS011;3516;47.980;8.808;2023-07-13T19:25:11;0.90;;;0.90;;
6953;SDS011;3516;47.980;8.808;2023-07-13T19:27:39;1.85;;;0.70;;
6953;SDS011;3516;47.980;8.808;2023-07-13T19:30:10;0.85;;;0.70;;
6953;SDS011;3516;47.980;8.808;2023-07-13T19:32:37;0.70;;;0.70;;
6953;SDS011;3516;47.980;8.808;2023-07-13T19:35:05;0.90;;;0.90;;
6953;SDS011;3516;47.980;8.808;2023-07-13T19:37:32;0.80;;;0.80;;
6953;SDS011;3516;47.980;8.808;2023-07-13T19:40:01;2.55;;;0.70;;
6953;SDS011;3516;47.980;8.808;2023-07-13T19:42:30;0.60;;;0.60;;
6953;SDS011;3516;47.980;8.808;2023-07-13T19:44:58;0.70;;;0.70;;
6953;SDS011;3516;47.980;8.808;2023-07-13T19:47:27;0.85;;;0.85;;
6953;SDS011;3516;47.980;8.808;2023-07-13T19:49:54;1.00;;;1.00;;
6953;SDS011;3516;47.980;8.808;2023-07-13T19:52:23;1.08;;;1.08;;
6953;SDS011;3516;47.980;8.808;2023-07-13T19:54:52;0.95;;;0.95;;
6953;SDS011;3516;47.980;8.808;2023-07-13T19:57:20;0.60;;;0.60;;
6953;SDS011;3516;47.980;8.808;2023-07-13T19:59:49;0.88;;;0.88;;
6953;SDS011;3516;47.980;8.808;2023-07-13T20:02:19;0.80;;;0.80;;
6953;SDS011;3516;47.980;8.808;2023-07-13T20:04:47;0.90;;;0.90;;